createdAt,value
2019-05-23T00:00:53.375Z,27.20
2019-05-23T00:03:58.222Z,27.30
2019-05-23T00:09:32.814Z,27.30
2019-05-23T00:12:21.371Z,27.87
2019-05-23T00:15:10.569Z,28.20
2019-05-23T00:17:39.474Z,27.75
2019-05-23T00:20:10.027Z,28.62
2019-05-23T00:22:39.056Z,27.27
2019-05-23T00:25:09.555Z,27.87
2019-05-23T00:27:40.283Z,28.05
2019-05-23T00:30:11.603Z,27.35
2019-05-23T00:32:42.088Z,27.35
2019-05-23T00:35:13.104Z,28.23
2019-05-23T00:37:43.522Z,28.45
2019-05-23T00:40:12.689Z,28.67
2019-05-23T00:42:41.705Z,28.83
2019-05-23T00:45:12.227Z,29.12
2019-05-23T00:47:41.155Z,29.27
2019-05-23T00:50:10.652Z,28.57
2019-05-23T00:52:40.592Z,29.65
2019-05-23T00:55:11.559Z,26.93
2019-05-23T00:57:41.363Z,26.85
2019-05-23T01:00:11.759Z,26.77
2019-05-23T01:02:40.619Z,27.55
2019-05-23T01:05:10.464Z,27.42
2019-05-23T01:07:40.092Z,26.77
2019-05-23T01:10:11.299Z,27.75
2019-05-23T01:12:40.425Z,28.25
2019-05-23T01:15:10.423Z,27.62
2019-05-23T01:17:39.362Z,27.25
2019-05-23T01:20:10.259Z,26.52
2019-05-23T01:22:40.755Z,29.15
2019-05-23T01:25:11.331Z,26.75
2019-05-23T01:27:40.751Z,27.35
2019-05-23T01:30:12.224Z,26.97
2019-05-23T01:32:51.996Z,27.30
2019-05-23T01:35:22.229Z,29.50
2019-05-23T01:37:51.623Z,26.97
2019-05-23T01:40:21.464Z,28.98
2019-05-23T01:42:51.287Z,28.77
2019-05-23T01:45:20.936Z,29.37
2019-05-23T01:47:50.067Z,28.15
2019-05-23T01:50:21.435Z,27.17
2019-05-23T01:52:51.571Z,28.98
2019-05-23T01:55:21.200Z,28.60
2019-05-23T01:57:51.272Z,28.83
2019-05-23T02:00:21.071Z,29.27
2019-05-23T02:02:49.930Z,28.85
2019-05-23T02:05:18.868Z,28.02
2019-05-23T02:07:47.719Z,28.98
2019-05-23T02:10:18.095Z,28.92
2019-05-23T02:12:47.431Z,28.17
2019-05-23T02:15:16.531Z,27.93
2019-05-23T02:17:46.438Z,28.73
2019-05-23T02:20:18.811Z,28.75
2019-05-23T02:22:48.194Z,29.15
2019-05-23T02:25:19.201Z,29.10
2019-05-23T02:27:48.920Z,31.33
2019-05-23T02:30:33.290Z,30.75
2019-05-23T02:32:50.041Z,31.30
2019-05-23T02:35:19.245Z,34.23
2019-05-23T02:37:49.924Z,33.23
2019-05-23T02:40:37.823Z,31.23
2019-05-23T02:43:14.560Z,32.38
2019-05-23T02:45:45.132Z,31.20
2019-05-23T02:48:17.105Z,30.62
2019-05-23T02:50:50.451Z,28.10
2019-05-23T02:53:22.139Z,26.73
2019-05-23T02:55:54.008Z,27.40
2019-05-23T02:58:28.508Z,26.10
2019-05-23T03:01:17.123Z,26.60
2019-05-23T03:03:46.391Z,25.05
2019-05-23T03:06:17.359Z,25.77
2019-05-23T03:08:47.855Z,25.45
2019-05-23T03:11:29.063Z,27.45
2019-05-23T03:13:59.754Z,27.25
2019-05-23T03:16:30.729Z,27.65
2019-05-23T03:19:05.521Z,27.58
2019-05-23T03:21:36.011Z,27.20
2019-05-23T03:24:06.518Z,29.90
2019-05-23T03:26:40.637Z,30.75
2019-05-23T03:31:41.094Z,27.60
2019-05-23T03:34:11.396Z,28.60
2019-05-23T03:36:40.788Z,28.62
2019-05-23T03:39:11.494Z,26.57
2019-05-23T03:41:40.363Z,25.75
2019-05-23T03:44:10.102Z,24.25
2019-05-23T03:46:40.603Z,24.90
2019-05-23T03:49:10.318Z,25.15
2019-05-23T03:51:41.051Z,24.80
2019-05-23T03:54:11.272Z,24.72
2019-05-23T03:56:40.138Z,25.62
2019-05-23T03:59:11.597Z,24.27
2019-05-23T04:01:48.236Z,23.73
2019-05-23T04:04:13.592Z,22.85
2019-05-23T04:06:42.728Z,23.52
2019-05-23T04:09:11.660Z,23.75
2019-05-23T04:11:40.511Z,22.27
2019-05-23T04:14:10.060Z,23.50
2019-05-23T04:16:39.988Z,23.18
2019-05-23T04:19:08.848Z,22.50
2019-05-23T04:21:37.715Z,22.27
2019-05-23T04:24:07.704Z,22.20
2019-05-23T04:26:36.702Z,22.93
2019-05-23T04:29:05.973Z,21.45
2019-05-23T04:31:34.828Z,21.25
2019-05-23T04:34:03.939Z,21.35
2019-05-23T04:36:32.859Z,21.00
2019-05-23T04:39:01.787Z,21.23
2019-05-23T04:41:32.393Z,19.77
2019-05-23T04:44:01.315Z,19.52
2019-05-23T04:46:30.199Z,19.32
2019-05-23T04:48:59.180Z,21.05
2019-05-23T04:51:28.352Z,19.50
2019-05-23T04:53:57.575Z,18.67
2019-05-23T04:56:26.508Z,18.15
2019-05-23T04:58:59.120Z,18.92
2019-05-23T05:04:01.753Z,17.85
2019-05-23T05:06:39.282Z,19.07
2019-05-23T05:09:14.315Z,18.85
2019-05-23T05:11:45.970Z,17.17
2019-05-23T05:14:15.105Z,16.95
2019-05-23T05:16:44.891Z,16.85
2019-05-23T05:19:14.232Z,16.07
2019-05-23T05:21:43.324Z,16.65
2019-05-23T05:24:12.187Z,15.85
2019-05-23T05:26:41.281Z,16.05
2019-05-23T05:29:10.148Z,16.75
2019-05-23T05:31:39.002Z,17.02
2019-05-23T05:34:07.930Z,17.55
2019-05-23T05:36:37.104Z,15.90
2019-05-23T05:39:06.252Z,14.35
2019-05-23T05:41:35.187Z,13.98
2019-05-23T05:44:04.304Z,13.43
2019-05-23T05:46:33.652Z,12.55
2019-05-23T05:49:02.580Z,13.30
2019-05-23T05:51:31.763Z,12.55
2019-05-23T05:54:01.094Z,12.40
2019-05-23T05:56:30.189Z,11.93
2019-05-23T05:58:59.286Z,10.85
2019-05-23T06:01:33.773Z,11.22
2019-05-23T06:03:58.773Z,11.73
2019-05-23T06:06:29.279Z,12.07
2019-05-23T06:09:02.491Z,10.40
2019-05-23T06:11:31.488Z,10.88
2019-05-23T06:14:00.439Z,10.58
2019-05-23T06:16:29.323Z,10.75
2019-05-23T06:18:58.416Z,10.25
2019-05-23T06:21:28.553Z,10.75
2019-05-23T06:23:57.424Z,11.80
2019-05-23T06:26:26.275Z,12.47
2019-05-23T06:28:55.373Z,15.08
2019-05-23T06:31:24.467Z,15.40
2019-05-23T06:33:53.403Z,15.18
2019-05-23T06:36:22.326Z,15.58
2019-05-23T06:38:51.765Z,14.98
2019-05-23T06:41:21.248Z,14.60
2019-05-23T06:43:50.772Z,13.20
2019-05-23T06:46:19.713Z,11.43
2019-05-23T06:48:48.563Z,11.93
2019-05-23T06:51:17.749Z,12.28
2019-05-23T06:53:46.616Z,11.78
2019-05-23T06:56:15.808Z,11.60
2019-05-23T06:58:44.734Z,12.82
2019-05-23T07:01:13.604Z,13.98
2019-05-23T07:03:43.737Z,12.47
2019-05-23T07:06:14.455Z,12.90
2019-05-23T07:08:43.692Z,13.05
2019-05-23T07:11:12.733Z,13.68
2019-05-23T07:13:42.361Z,11.88
2019-05-23T07:16:11.223Z,13.30
2019-05-23T07:18:40.852Z,14.13
2019-05-23T07:21:10.586Z,12.98
2019-05-23T07:23:39.468Z,12.95
2019-05-23T07:26:08.379Z,12.63
2019-05-23T07:28:38.592Z,15.05
2019-05-23T07:31:07.526Z,14.00
2019-05-23T07:33:36.463Z,13.78
2019-05-23T07:36:05.321Z,12.25
2019-05-23T07:38:34.453Z,12.25
2019-05-23T07:41:03.781Z,11.38
2019-05-23T07:43:32.872Z,11.85
2019-05-23T07:46:01.732Z,13.13
2019-05-23T07:48:31.103Z,13.95
2019-05-23T07:51:01.171Z,13.48
2019-05-23T07:53:44.169Z,13.35
2019-05-23T07:56:14.963Z,12.82
2019-05-23T07:58:44.022Z,11.93
2019-05-23T08:01:14.610Z,14.13
2019-05-23T08:03:44.021Z,12.95
2019-05-23T08:06:13.485Z,13.00
2019-05-23T08:08:42.587Z,12.47
2019-05-23T08:11:11.732Z,12.58
2019-05-23T08:13:41.726Z,11.57
2019-05-23T08:16:11.660Z,11.65
2019-05-23T08:18:40.873Z,11.53
2019-05-23T08:21:09.880Z,11.08
2019-05-23T08:23:38.797Z,13.05
2019-05-23T08:26:07.673Z,14.55
2019-05-23T08:28:36.591Z,14.35
2019-05-23T08:31:06.995Z,11.85
2019-05-23T08:33:36.457Z,11.12
2019-05-23T08:36:05.655Z,11.65
2019-05-23T08:38:34.778Z,10.60
2019-05-23T08:41:05.756Z,11.22
2019-05-23T08:43:34.787Z,11.93
2019-05-23T08:46:04.549Z,11.78
2019-05-23T08:48:33.632Z,13.98
2019-05-23T08:51:02.531Z,13.70
2019-05-23T08:53:31.732Z,12.28
2019-05-23T08:56:01.257Z,11.97
2019-05-23T08:58:30.120Z,15.90
2019-05-23T09:00:59.267Z,13.15
2019-05-23T09:03:28.659Z,12.65
2019-05-23T09:05:57.790Z,17.15
2019-05-23T09:08:27.407Z,16.35
2019-05-23T09:10:56.723Z,15.90
2019-05-23T09:13:25.963Z,14.55
2019-05-23T09:15:55.078Z,13.45
2019-05-23T09:18:23.935Z,13.18
2019-05-23T09:20:53.067Z,12.75
2019-05-23T09:23:22.162Z,14.18
2019-05-23T09:25:51.063Z,11.88
2019-05-23T09:28:20.480Z,14.73
2019-05-23T09:30:49.357Z,16.87
2019-05-23T09:33:18.589Z,16.10
2019-05-23T09:35:48.576Z,17.57
2019-05-23T09:38:17.444Z,15.93
2019-05-23T09:40:46.299Z,17.65
2019-05-23T09:43:15.279Z,14.87
2019-05-23T09:45:44.510Z,18.35
2019-05-23T09:48:13.363Z,17.07
2019-05-23T09:50:42.299Z,17.35
2019-05-23T09:53:12.567Z,18.85
2019-05-23T09:55:41.429Z,17.65
2019-05-23T09:58:10.359Z,19.00
2019-05-23T10:00:40.857Z,20.05
2019-05-23T10:03:10.163Z,17.75
2019-05-23T10:05:43.571Z,19.62
2019-05-23T10:08:09.819Z,21.55
2019-05-23T10:10:38.923Z,20.10
2019-05-23T10:13:07.793Z,19.85
2019-05-23T10:15:38.365Z,16.45
2019-05-23T10:18:09.589Z,19.87
2019-05-23T10:20:39.264Z,18.65
2019-05-23T10:23:08.109Z,19.73
2019-05-23T10:25:36.966Z,20.97
2019-05-23T10:28:06.301Z,18.27
2019-05-23T10:30:35.255Z,22.65
2019-05-23T10:33:11.480Z,22.15
2019-05-23T10:35:35.396Z,22.13
2019-05-23T10:38:04.270Z,17.73
2019-05-23T10:40:33.289Z,19.67
2019-05-23T10:43:02.252Z,18.85
2019-05-23T10:45:31.233Z,21.20
2019-05-23T10:48:00.647Z,18.20
2019-05-23T10:50:43.679Z,16.82
2019-05-23T10:53:00.071Z,16.05
2019-05-23T10:55:29.188Z,16.00
2019-05-23T10:57:58.103Z,17.07
2019-05-23T11:00:28.633Z,19.67
2019-05-23T11:02:57.855Z,17.77
2019-05-23T11:05:27.356Z,16.60
2019-05-23T11:07:56.521Z,18.45
2019-05-23T11:10:26.472Z,19.80
2019-05-23T11:12:55.405Z,18.15
2019-05-23T11:15:24.255Z,21.62
2019-05-23T11:17:54.184Z,20.17
2019-05-23T11:20:24.243Z,18.82
2019-05-23T11:22:53.340Z,19.00
2019-05-23T11:25:22.868Z,19.77
2019-05-23T11:27:51.920Z,18.65
2019-05-23T11:30:26.670Z,19.40
2019-05-23T11:32:55.524Z,19.12
2019-05-23T11:35:24.545Z,18.95
2019-05-23T11:37:53.464Z,18.05
2019-05-23T11:40:22.313Z,18.07
2019-05-23T11:42:52.890Z,18.35
2019-05-23T11:45:23.747Z,20.97
2019-05-23T11:47:52.608Z,19.00
2019-05-23T11:50:21.544Z,18.92
2019-05-23T11:52:51.371Z,15.28
2019-05-23T11:55:20.612Z,16.42
2019-05-23T11:57:49.480Z,14.60
2019-05-23T12:00:21.440Z,14.75
2019-05-23T12:02:50.823Z,14.85
2019-05-23T12:05:21.331Z,14.20
2019-05-23T12:07:50.731Z,16.85
2019-05-23T12:10:19.592Z,14.90
2019-05-23T12:12:48.447Z,16.25
2019-05-23T12:15:26.235Z,17.02
2019-05-23T12:17:55.120Z,16.57
2019-05-23T12:20:25.422Z,15.28
2019-05-23T12:22:54.517Z,14.25
2019-05-23T12:25:25.045Z,14.38
2019-05-23T12:27:53.953Z,16.12
2019-05-23T12:30:25.409Z,15.63
2019-05-23T12:32:54.270Z,14.47
2019-05-23T12:35:23.132Z,15.55
2019-05-23T12:37:52.963Z,17.52
2019-05-23T12:40:21.837Z,16.35
2019-05-23T12:42:50.704Z,14.80
2019-05-23T12:45:19.995Z,13.00
2019-05-23T12:47:50.594Z,12.65
2019-05-23T12:50:22.322Z,12.35
2019-05-23T12:52:55.370Z,11.60
2019-05-23T12:55:25.294Z,11.88
2019-05-23T12:57:54.162Z,12.88
2019-05-23T13:00:25.858Z,11.43
2019-05-23T13:02:54.779Z,12.40
2019-05-23T13:05:24.671Z,11.12
2019-05-23T13:07:53.588Z,13.75
2019-05-23T13:10:24.765Z,12.00
2019-05-23T13:12:56.084Z,13.28
2019-05-23T13:15:25.480Z,11.05
2019-05-23T13:17:54.572Z,11.30
2019-05-23T13:20:24.028Z,10.72
2019-05-23T13:22:53.031Z,9.73
2019-05-23T13:25:23.801Z,12.05
2019-05-23T13:27:52.917Z,12.25
2019-05-23T13:30:23.490Z,11.50
2019-05-23T13:32:52.341Z,11.08
2019-05-23T13:35:21.202Z,10.30
2019-05-23T13:37:54.062Z,10.03
2019-05-23T13:40:22.799Z,12.78
2019-05-23T13:42:53.433Z,10.25
2019-05-23T13:45:22.436Z,12.25
2019-05-23T13:47:51.511Z,11.93
2019-05-23T13:50:20.435Z,10.70
2019-05-23T13:52:49.779Z,10.98
2019-05-23T13:55:18.783Z,11.57
2019-05-23T13:57:51.161Z,12.25
2019-05-23T14:00:20.548Z,11.78
2019-05-23T14:02:49.411Z,10.70
2019-05-23T14:05:19.644Z,11.97
2019-05-23T14:07:51.021Z,11.28
2019-05-23T14:10:20.012Z,10.98
2019-05-23T14:12:48.960Z,10.93
2019-05-23T14:15:19.464Z,10.70
2019-05-23T14:17:48.775Z,10.23
2019-05-23T14:20:17.695Z,9.48
2019-05-23T14:22:48.279Z,11.48
2019-05-23T14:25:17.573Z,11.38
2019-05-23T14:27:48.081Z,10.20
2019-05-23T14:30:27.770Z,9.43
2019-05-23T14:32:58.998Z,10.30
2019-05-23T14:35:29.507Z,9.93
2019-05-23T14:38:00.338Z,10.65
2019-05-23T14:40:29.532Z,9.98
2019-05-23T14:43:02.735Z,9.40
2019-05-23T14:45:33.607Z,10.13
2019-05-23T14:48:12.315Z,10.23
2019-05-23T14:50:42.133Z,10.28
2019-05-23T14:53:12.919Z,9.40
2019-05-23T14:55:41.850Z,9.53
2019-05-23T14:58:10.709Z,9.50
2019-05-23T15:00:40.170Z,9.18
2019-05-23T15:03:09.087Z,9.60
2019-05-23T15:05:38.487Z,9.78
2019-05-23T15:08:07.341Z,10.58
2019-05-23T15:10:36.265Z,9.53
2019-05-23T15:13:05.503Z,12.23
2019-05-23T15:15:34.436Z,11.97
2019-05-23T15:18:03.372Z,11.38
2019-05-23T15:20:32.291Z,10.32
2019-05-23T15:23:01.548Z,10.75
2019-05-23T15:25:30.496Z,11.97
2019-05-23T15:27:59.359Z,12.23
2019-05-23T15:30:28.385Z,11.80
2019-05-23T15:32:57.531Z,11.48
2019-05-23T15:35:26.472Z,11.53
2019-05-23T15:37:55.403Z,11.63
2019-05-23T15:40:24.428Z,11.45
2019-05-23T15:42:53.291Z,11.85
2019-05-23T15:45:22.175Z,10.93
2019-05-23T15:47:51.683Z,9.80
2019-05-23T15:50:22.188Z,9.90
2019-05-23T15:52:58.507Z,11.55
2019-05-23T15:55:38.146Z,10.00
2019-05-23T15:58:08.733Z,10.80
2019-05-23T16:00:51.400Z,10.70
2019-05-23T16:03:31.661Z,10.48
2019-05-23T16:06:02.363Z,12.13
2019-05-23T16:08:31.392Z,11.65
2019-05-23T16:11:00.621Z,10.38
2019-05-23T16:13:29.792Z,9.78
2019-05-23T16:15:58.884Z,9.73
2019-05-23T16:18:28.192Z,9.28
2019-05-23T16:20:57.047Z,9.78
2019-05-23T16:23:26.185Z,10.58
2019-05-23T16:25:55.273Z,10.95
2019-05-23T16:28:24.129Z,9.40
2019-05-23T16:30:53.224Z,10.93
2019-05-23T16:33:22.270Z,10.75
2019-05-23T16:35:51.198Z,10.48
2019-05-23T16:38:21.979Z,12.90
2019-05-23T16:40:50.915Z,11.60
2019-05-23T16:43:20.045Z,10.82
2019-05-23T16:45:48.895Z,11.50
2019-05-23T16:48:17.774Z,11.50
2019-05-23T16:50:46.811Z,10.40
2019-05-23T16:53:16.055Z,11.20
2019-05-23T16:55:49.790Z,10.58
2019-05-23T16:58:23.280Z,11.20
2019-05-23T17:01:23.488Z,10.28
2019-05-23T17:03:59.510Z,10.85
2019-05-23T17:06:41.929Z,9.85
2019-05-23T17:09:15.367Z,10.68
2019-05-23T17:11:45.879Z,10.18
2019-05-23T17:14:25.164Z,10.60
2019-05-23T17:17:11.013Z,10.32
2019-05-23T17:19:41.553Z,10.90
2019-05-23T17:22:12.713Z,10.43
2019-05-23T17:24:43.233Z,10.28
2019-05-23T17:27:13.977Z,11.03
2019-05-23T17:29:44.785Z,10.30
2019-05-23T17:32:15.452Z,10.13
2019-05-23T17:34:44.315Z,9.95
2019-05-23T17:37:14.136Z,9.88
2019-05-23T17:39:43.680Z,9.20
2019-05-23T17:42:12.604Z,10.05
2019-05-23T17:44:41.467Z,9.83
2019-05-23T17:47:10.399Z,8.85
2019-05-23T17:49:39.624Z,10.00
2019-05-23T17:52:08.624Z,8.80
2019-05-23T17:54:37.611Z,9.53
2019-05-23T17:57:08.196Z,9.65
2019-05-23T17:59:37.052Z,9.20
2019-05-23T18:02:09.461Z,9.65
2019-05-23T18:04:38.389Z,10.00
2019-05-23T18:07:07.989Z,10.28
2019-05-23T18:09:39.854Z,8.85
2019-05-23T18:12:09.163Z,8.78
2019-05-23T18:14:38.924Z,8.60
2019-05-23T18:17:09.311Z,9.53
2019-05-23T18:19:38.577Z,9.33
2019-05-23T18:22:08.317Z,9.63
2019-05-23T18:24:37.186Z,9.25
2019-05-23T18:27:07.685Z,8.00
2019-05-23T18:29:36.691Z,7.87
2019-05-23T18:32:07.245Z,7.90
2019-05-23T18:34:37.683Z,7.65
2019-05-23T18:37:07.379Z,7.53
2019-05-23T18:39:36.476Z,7.58
2019-05-23T18:42:06.651Z,7.10
2019-05-23T18:44:35.644Z,7.83
2019-05-23T18:47:06.143Z,8.00
2019-05-23T18:49:36.039Z,7.65
2019-05-23T18:52:06.467Z,7.80
2019-05-23T18:54:35.343Z,8.40
2019-05-23T18:57:04.267Z,7.60
2019-05-23T18:59:33.279Z,8.33
2019-05-23T19:02:02.799Z,8.13
2019-05-23T19:04:31.956Z,8.50
2019-05-23T19:07:00.951Z,7.70
2019-05-23T19:09:29.814Z,7.65
2019-05-23T19:11:59.259Z,8.58
2019-05-23T19:14:28.303Z,8.35
2019-05-23T19:16:57.491Z,8.03
2019-05-23T19:19:26.761Z,8.35
2019-05-23T19:21:56.235Z,8.80
2019-05-23T19:24:25.597Z,9.58
2019-05-23T19:26:54.455Z,8.35
2019-05-23T19:29:23.312Z,9.55
2019-05-23T19:31:53.065Z,9.23
2019-05-23T19:34:22.011Z,9.85
2019-05-23T19:36:50.940Z,9.23
2019-05-23T19:39:20.283Z,10.88
2019-05-23T19:41:49.388Z,10.82
2019-05-23T19:44:18.248Z,11.05
2019-05-23T19:46:47.409Z,10.85
2019-05-23T19:49:16.521Z,11.57
2019-05-23T19:51:46.524Z,11.18
2019-05-23T19:54:15.883Z,10.80
2019-05-23T19:56:45.179Z,10.82
2019-05-23T19:59:14.046Z,10.32
2019-05-23T20:01:44.552Z,11.20
2019-05-23T20:04:13.898Z,10.08
2019-05-23T20:06:43.011Z,12.07
2019-05-23T20:09:13.592Z,11.43
2019-05-23T20:11:53.694Z,10.78
2019-05-23T20:14:13.199Z,11.63
2019-05-23T20:16:42.314Z,10.60
2019-05-23T20:19:16.205Z,11.78
2019-05-23T20:21:45.055Z,11.93
2019-05-23T20:24:13.968Z,14.03
2019-05-23T20:26:42.895Z,15.85
2019-05-23T20:29:11.756Z,18.27
2019-05-23T20:31:40.635Z,21.33
2019-05-23T20:34:09.984Z,22.42
2019-05-23T20:36:38.843Z,21.73
2019-05-23T20:39:07.703Z,17.48
2019-05-23T20:41:37.040Z,16.35
2019-05-23T20:44:05.892Z,14.55
2019-05-23T20:46:34.747Z,14.75
2019-05-23T20:49:04.808Z,13.98
2019-05-23T20:51:34.127Z,12.75
2019-05-23T20:54:02.985Z,12.68
2019-05-23T20:56:31.849Z,12.68
2019-05-23T20:59:00.712Z,12.30
2019-05-23T21:01:34.060Z,13.10
2019-05-23T21:04:02.929Z,12.70
2019-05-23T21:06:32.015Z,13.15
2019-05-23T21:09:00.890Z,12.60
2019-05-23T21:11:31.567Z,12.30
2019-05-23T21:14:05.457Z,13.10
2019-05-23T21:16:34.391Z,12.65
2019-05-23T21:19:03.328Z,12.55
2019-05-23T21:21:34.820Z,13.38
2019-05-23T21:24:03.873Z,13.25
2019-05-23T21:26:32.800Z,13.38
2019-05-23T21:29:02.445Z,14.00
2019-05-23T21:31:31.462Z,14.00
2019-05-23T21:34:00.948Z,13.80
2019-05-23T21:36:30.348Z,14.73
2019-05-23T21:39:00.190Z,14.45
2019-05-23T21:41:30.964Z,15.48
2019-05-23T21:44:04.296Z,15.20
2019-05-23T21:46:33.725Z,14.63
2019-05-23T21:49:02.588Z,14.75
2019-05-23T21:51:33.132Z,15.25
2019-05-23T21:54:02.016Z,15.80
2019-05-23T21:56:30.867Z,16.10
2019-05-23T21:58:59.723Z,15.95
2019-05-23T22:01:30.231Z,16.02
2019-05-23T22:04:09.803Z,16.02
2019-05-23T22:06:40.295Z,15.30
2019-05-23T22:09:10.792Z,15.83
2019-05-23T22:11:39.659Z,16.60
2019-05-23T22:14:08.583Z,15.88
2019-05-23T22:16:37.820Z,15.80
2019-05-23T22:19:08.678Z,15.78
2019-05-23T22:21:37.620Z,16.20
2019-05-23T22:24:06.947Z,16.30
2019-05-23T22:26:37.197Z,16.37
2019-05-23T22:29:06.497Z,17.25
2019-05-23T22:31:35.819Z,16.17
2019-05-23T22:34:24.707Z,15.88
2019-05-23T22:36:53.568Z,16.55
2019-05-23T22:39:22.500Z,17.62
2019-05-23T22:41:51.586Z,17.27
2019-05-23T22:44:21.919Z,16.62
2019-05-23T22:46:50.771Z,16.50
2019-05-23T22:49:19.642Z,16.40
2019-05-23T22:51:48.495Z,17.23
2019-05-23T22:54:18.427Z,16.85
2019-05-23T22:56:47.292Z,17.52
2019-05-23T22:59:16.392Z,17.23
2019-05-23T23:01:45.339Z,17.20
2019-05-23T23:04:14.641Z,17.57
2019-05-23T23:06:44.657Z,18.55
2019-05-23T23:09:13.511Z,17.87
2019-05-23T23:11:42.372Z,18.98
2019-05-23T23:14:11.248Z,18.25
2019-05-23T23:16:40.169Z,18.02
2019-05-23T23:19:09.190Z,17.73
2019-05-23T23:21:38.052Z,18.45
2019-05-23T23:24:07.211Z,19.60
2019-05-23T23:26:36.063Z,18.20
2019-05-23T23:29:05.499Z,18.10
2019-05-23T23:31:34.589Z,18.15
2019-05-23T23:34:03.439Z,18.17
2019-05-23T23:36:32.640Z,18.80
2019-05-23T23:39:01.503Z,18.87
2019-05-23T23:41:31.774Z,19.42
2019-05-23T23:44:01.602Z,18.77
2019-05-23T23:46:49.188Z,18.52
2019-05-23T23:49:36.179Z,18.25
2019-05-23T23:52:23.091Z,20.05
2019-05-23T23:55:10.186Z,19.12
2019-05-23T23:57:57.160Z,20.10
